Time;durP1;ratioP1;P1;durP2;ratioP2;P2;SDS_P1;SDS_P2;PMS_P1;PMS_P2;Temp;Humidity;BMP_temperature;BMP_pressure;BME280_temperature;BME280_humidity;BME280_pressure;Samples;Min_cycle;Max_cycle;Signal;HPM_P1;HPM_P2
2021/06/29 00:00:34;;;;;;;7.60;3.67;;;17.90;99.90;;;;;;5089487;28;20202;-72
2021/06/29 00:03:02;;;;;;;10.73;3.72;;;17.90;99.90;;;;;;5089321;28;20217;-75
2021/06/29 00:05:30;;;;;;;4.30;3.60;;;17.80;99.90;;;;;;5090413;28;20736;-73
2021/06/29 00:07:57;;;;;;;7.28;4.95;;;17.90;99.90;;;;;;5088836;28;20717;-74
2021/06/29 00:10:25;;;;;;;8.07;3.83;;;18.00;99.90;;;;;;5087956;28;20239;-75
2021/06/29 00:12:54;;;;;;;5.70;3.55;;;17.90;99.90;;;;;;5089568;28;20201;-74
2021/06/29 00:15:22;;;;;;;11.30;4.85;;;17.90;99.90;;;;;;5089398;28;20657;-75
2021/06/29 00:17:49;;;;;;;7.55;4.75;;;17.80;99.90;;;;;;5090057;28;20263;-73
2021/06/29 00:20:17;;;;;;;7.35;3.97;;;17.70;99.90;;;;;;5088782;28;20213;-73
2021/06/29 00:22:45;;;;;;;7.97;4.10;;;17.70;99.90;;;;;;5089170;28;20258;-73
2021/06/29 00:25:13;;;;;;;9.02;4.68;;;17.60;99.90;;;;;;5088841;28;20255;-73
2021/06/29 00:27:42;;;;;;;8.27;4.65;;;17.60;99.90;;;;;;5089191;28;20222;-74
2021/06/29 00:30:11;;;;;;;8.68;4.70;;;17.60;99.90;;;;;;5088944;28;20210;-73
2021/06/29 00:32:38;;;;;;;8.27;4.93;;;17.60;99.90;;;;;;5089414;28;20197;-73
2021/06/29 00:35:07;;;;;;;7.18;4.55;;;17.70;99.90;;;;;;5086635;28;20657;-73
2021/06/29 00:37:34;;;;;;;11.13;5.15;;;17.70;99.90;;;;;;5094572;28;20209;-72
2021/06/29 00:40:01;;;;;;;8.35;5.88;;;17.70;99.90;;;;;;5091507;28;20780;-72
2021/06/29 00:42:28;;;;;;;8.95;4.60;;;17.60;99.90;;;;;;5093521;28;20210;-78
2021/06/29 00:44:55;;;;;;;9.23;5.63;;;17.70;99.90;;;;;;5092061;28;20213;-72
2021/06/29 00:47:23;;;;;;;10.02;5.63;;;17.70;99.90;;;;;;5093419;28;20278;-72
2021/06/29 00:49:50;;;;;;;9.80;5.35;;;17.70;99.90;;;;;;5091944;28;20271;-73
2021/06/29 00:52:18;;;;;;;8.77;5.95;;;17.70;99.90;;;;;;5092877;28;20218;-73
2021/06/29 00:54:45;;;;;;;10.88;5.78;;;17.60;99.90;;;;;;5092299;28;20274;-73
2021/06/29 00:57:13;;;;;;;11.10;5.68;;;17.70;99.90;;;;;;5089248;28;20259;-73
2021/06/29 00:59:40;;;;;;;14.77;6.68;;;17.70;99.90;;;;;;5091398;28;20205;-73
2021/06/29 01:02:09;;;;;;;12.73;6.10;;;17.60;99.90;;;;;;5091589;28;20613;-73
2021/06/29 01:04:38;;;;;;;11.70;6.53;;;17.50;99.90;;;;;;5096851;28;20254;-73
2021/06/29 01:07:06;;;;;;;10.88;5.50;;;17.50;99.90;;;;;;5095007;28;20278;-72
2021/06/29 01:09:33;;;;;;;9.68;5.88;;;17.60;99.90;;;;;;5088375;28;20389;-72
2021/06/29 01:12:01;;;;;;;9.05;5.57;;;17.50;99.90;;;;;;5092085;28;21120;-74
2021/06/29 01:14:28;;;;;;;10.75;6.55;;;17.60;99.90;;;;;;5090679;28;20209;-73
2021/06/29 01:16:57;;;;;;;9.65;5.78;;;17.50;99.90;;;;;;5086486;28;20270;-73
2021/06/29 01:19:33;;;;;;;17.13;6.20;;;17.50;99.90;;;;;;5093361;28;20211;-73
2021/06/29 01:22:03;;;;;;;12.00;5.55;;;17.50;99.90;;;;;;5096442;28;20283;-75
2021/06/29 01:24:31;;;;;;;13.63;5.82;;;17.40;99.90;;;;;;5087849;28;20281;-74
2021/06/29 01:27:10;;;;;;;13.68;7.00;;;17.40;99.90;;;;;;5092755;28;20209;-72
2021/06/29 01:29:45;;;;;;;10.98;6.57;;;17.40;99.90;;;;;;5087990;28;20545;-73
2021/06/29 01:32:12;;;;;;;11.90;6.07;;;17.40;99.90;;;;;;5091593;28;20201;-73
2021/06/29 01:34:40;;;;;;;14.57;6.78;;;17.40;99.90;;;;;;5083769;28;20201;-73
2021/06/29 01:37:08;;;;;;;7.80;5.88;;;17.30;99.90;;;;;;5093356;28;20624;-72
2021/06/29 01:39:35;;;;;;;7.43;5.65;;;17.40;99.90;;;;;;5092379;28;20201;-72
2021/06/29 01:42:02;;;;;;;10.35;5.63;;;17.40;99.90;;;;;;5089698;28;20201;-74
2021/06/29 01:44:32;;;;;;;8.23;5.35;;;17.40;99.90;;;;;;5079755;28;20202;-75
2021/06/29 01:47:00;;;;;;;7.88;4.57;;;17.40;99.90;;;;;;5088483;28;20258;-72
2021/06/29 01:49:28;;;;;;;11.55;5.88;;;17.50;99.90;;;;;;5092348;28;20201;-72
2021/06/29 01:51:55;;;;;;;13.27;7.03;;;17.40;99.90;;;;;;5086125;28;20206;-72
2021/06/29 01:54:24;;;;;;;12.55;7.53;;;17.30;99.90;;;;;;5090620;28;20210;-73
2021/06/29 01:56:51;;;;;;;11.55;5.20;;;17.30;99.90;;;;;;5092810;28;20262;-72
2021/06/29 01:59:20;;;;;;;16.35;6.63;;;17.30;99.90;;;;;;5090901;28;20733;-73
2021/06/29 02:01:48;;;;;;;12.45;6.07;;;17.30;99.90;;;;;;5090421;28;20229;-73
2021/06/29 02:04:15;;;;;;;10.77;6.35;;;17.30;99.90;;;;;;5090745;28;20210;-73
2021/06/29 02:06:43;;;;;;;11.52;7.55;;;17.20;99.90;;;;;;5091728;28;20611;-72
2021/06/29 02:09:11;;;;;;;9.93;5.95;;;17.00;99.90;;;;;;5085910;28;20285;-71
2021/06/29 02:11:40;;;;;;;11.25;6.20;;;16.80;99.90;;;;;;5088856;28;20259;-74
2021/06/29 02:14:08;;;;;;;8.52;6.10;;;16.50;99.90;;;;;;5090696;28;20287;-71
2021/06/29 02:16:36;;;;;;;14.00;6.65;;;16.40;99.90;;;;;;5091530;28;20734;-71
2021/06/29 02:19:02;;;;;;;14.10;6.70;;;16.20;99.90;;;;;;5091532;28;20209;-73
2021/06/29 02:21:29;;;;;;;9.23;7.10;;;16.00;99.90;;;;;;5092609;28;20205;-71
2021/06/29 02:23:56;;;;;;;11.07;6.95;;;16.10;99.90;;;;;;5089639;28;20213;-70
2021/06/29 02:26:23;;;;;;;8.02;6.72;;;16.10;99.90;;;;;;5091324;28;20205;-72
2021/06/29 02:28:52;;;;;;;12.18;6.80;;;16.20;99.90;;;;;;5091392;28;20284;-75
2021/06/29 02:31:19;;;;;;;9.95;7.53;;;16.10;99.90;;;;;;5092351;28;20209;-73
2021/06/29 02:33:46;;;;;;;10.82;6.85;;;16.10;99.90;;;;;;5083763;28;20617;-72
2021/06/29 02:36:13;;;;;;;17.25;8.45;;;16.10;99.90;;;;;;5090243;28;20668;-70
2021/06/29 02:38:40;;;;;;;12.43;8.20;;;16.00;99.90;;;;;;5089927;28;20665;-70
2021/06/29 02:41:07;;;;;;;15.70;8.68;;;15.80;99.90;;;;;;5093570;28;20255;-72
2021/06/29 02:43:36;;;;;;;13.43;8.13;;;15.90;99.90;;;;;;5091008;28;20201;-70
2021/06/29 02:46:05;;;;;;;9.18;7.65;;;15.80;99.90;;;;;;5090918;28;20645;-72
2021/06/29 02:48:32;;;;;;;15.23;8.55;;;16.00;99.90;;;;;;5091524;28;20237;-70
2021/06/29 02:50:59;;;;;;;12.15;7.00;;;15.90;99.90;;;;;;5091389;28;20214;-72
2021/06/29 02:53:26;;;;;;;16.13;9.30;;;16.00;99.90;;;;;;5090959;28;20209;-71
2021/06/29 02:55:53;;;;;;;15.85;7.70;;;16.10;99.90;;;;;;5088283;28;20575;-72
2021/06/29 02:58:20;;;;;;;12.45;8.25;;;16.20;99.90;;;;;;5091631;28;20248;-72
2021/06/29 03:00:47;;;;;;;13.93;8.02;;;16.20;99.90;;;;;;5088999;28;20205;-70
2021/06/29 03:03:16;;;;;;;14.77;7.93;;;16.00;99.90;;;;;;5090673;28;20618;-72
2021/06/29 03:05:43;;;;;;;10.40;8.18;;;15.90;99.90;;;;;;5089482;28;20677;-72
2021/06/29 03:08:10;;;;;;;16.70;8.27;;;15.90;99.90;;;;;;5090354;28;20638;-72
2021/06/29 03:10:37;;;;;;;14.40;8.77;;;16.00;99.90;;;;;;5088396;28;20607;-71
2021/06/29 03:13:04;;;;;;;13.25;8.18;;;16.10;99.90;;;;;;5089529;28;20255;-72
2021/06/29 03:15:31;;;;;;;12.18;8.60;;;16.00;99.90;;;;;;5090930;28;20205;-72
2021/06/29 03:17:58;;;;;;;14.65;8.90;;;15.90;99.90;;;;;;5089009;28;20618;-70
2021/06/29 03:20:27;;;;;;;12.13;7.55;;;16.00;99.90;;;;;;5088544;28;20278;-70
2021/06/29 03:22:54;;;;;;;11.65;7.43;;;16.10;99.90;;;;;;5090750;28;20206;-70
2021/06/29 03:25:21;;;;;;;14.27;9.20;;;16.10;99.90;;;;;;5083551;28;20608;-72
2021/06/29 03:27:48;;;;;;;10.77;7.45;;;16.10;99.90;;;;;;5089674;28;20306;-72
2021/06/29 03:30:16;;;;;;;13.48;8.73;;;16.00;99.90;;;;;;5089717;28;20205;-73
2021/06/29 03:32:43;;;;;;;9.68;7.82;;;16.00;99.90;;;;;;5076402;28;20205;-71
2021/06/29 03:35:11;;;;;;;10.73;7.93;;;16.00;99.90;;;;;;5090281;28;20259;-72
2021/06/29 03:37:39;;;;;;;15.30;8.73;;;16.00;99.90;;;;;;5087214;28;20254;-70
2021/06/29 03:40:08;;;;;;;13.50;8.27;;;15.80;99.90;;;;;;5091184;28;20214;-73
2021/06/29 03:42:35;;;;;;;15.32;7.80;;;15.80;99.90;;;;;;5085184;28;20259;-71
2021/06/29 03:45:02;;;;;;;15.50;7.95;;;15.70;99.90;;;;;;5090591;28;20209;-71
2021/06/29 03:47:29;;;;;;;15.43;7.15;;;15.70;99.90;;;;;;5089972;28;20262;-72
2021/06/29 03:49:56;;;;;;;18.33;9.35;;;15.60;99.90;;;;;;5090400;28;20237;-72
2021/06/29 03:52:23;;;;;;;10.90;7.63;;;15.60;99.90;;;;;;5088781;28;20262;-72
2021/06/29 03:54:51;;;;;;;12.45;7.30;;;15.60;99.90;;;;;;5075555;28;20221;-72
2021/06/29 03:57:18;;;;;;;15.23;7.32;;;15.60;99.90;;;;;;5089196;28;20254;-72
2021/06/29 03:59:45;;;;;;;11.95;8.32;;;15.60;99.90;;;;;;5089296;28;20254;-72
2021/06/29 04:02:12;;;;;;;8.77;7.53;;;15.60;99.90;;;;;;5089591;28;20254;-72
2021/06/29 04:04:39;;;;;;;12.68;7.70;;;15.70;99.90;;;;;;5085266;28;20205;-72
2021/06/29 04:07:08;;;;;;;11.18;8.32;;;15.80;99.90;;;;;;5089597;28;20292;-72
2021/06/29 04:09:37;;;;;;;10.38;6.55;;;15.70;99.90;;;;;;5088820;28;20245;-72
2021/06/29 04:12:07;;;;;;;12.68;7.07;;;15.60;99.90;;;;;;5082137;28;20669;-72
2021/06/29 04:14:34;;;;;;;10.07;7.28;;;15.70;99.90;;;;;;5083684;28;20676;-72
2021/06/29 04:17:01;;;;;;;11.35;7.65;;;15.80;99.90;;;;;;5089381;28;20254;-72
2021/06/29 04:19:28;;;;;;;12.65;7.85;;;15.80;99.90;;;;;;5089331;28;20763;-72
2021/06/29 04:21:55;;;;;;;11.45;7.20;;;15.80;99.90;;;;;;5089166;28;20255;-72
2021/06/29 04:24:22;;;;;;;12.70;8.45;;;15.80;99.90;;;;;;5090148;28;20205;-72
2021/06/29 04:26:49;;;;;;;12.30;6.90;;;15.80;99.90;;;;;;5088126;28;20245;-72
2021/06/29 04:29:17;;;;;;;11.18;6.72;;;15.80;99.90;;;;;;5087459;28;20286;-73
2021/06/29 04:31:44;;;;;;;11.65;7.63;;;15.80;99.90;;;;;;5073589;28;20201;-73
2021/06/29 04:34:11;;;;;;;15.25;7.43;;;15.90;99.90;;;;;;5076035;28;20256;-73
2021/06/29 04:36:38;;;;;;;12.68;7.70;;;15.90;99.90;;;;;;5089511;28;20251;-70
2021/06/29 04:39:06;;;;;;;14.70;8.13;;;15.80;99.90;;;;;;5088847;28;20661;-72
2021/06/29 04:41:34;;;;;;;12.02;8.13;;;15.80;99.90;;;;;;5081082;28;20206;-72
2021/06/29 04:44:01;;;;;;;16.05;8.48;;;15.70;99.90;;;;;;5089210;28;20360;-72
2021/06/29 04:46:29;;;;;;;8.82;7.03;;;15.80;99.90;;;;;;5089994;28;20300;-72
2021/06/29 04:48:56;;;;;;;15.75;7.47;;;15.90;99.90;;;;;;5080337;28;20229;-72
2021/06/29 04:51:23;;;;;;;9.73;7.30;;;16.00;99.90;;;;;;5089483;28;20201;-72
2021/06/29 04:53:50;;;;;;;11.07;7.32;;;15.90;99.90;;;;;;5088195;28;20285;-69
2021/06/29 04:56:20;;;;;;;13.38;7.50;;;15.80;99.90;;;;;;5087268;28;20651;-71
2021/06/29 04:58:48;;;;;;;9.98;6.57;;;15.80;99.90;;;;;;5079588;28;20248;-71
2021/06/29 05:01:15;;;;;;;13.50;7.07;;;15.80;99.90;;;;;;5089987;28;20205;-71
2021/06/29 05:03:44;;;;;;;8.57;7.65;;;15.70;99.90;;;;;;5088759;28;20206;-72
2021/06/29 05:06:11;;;;;;;12.98;8.07;;;15.70;99.90;;;;;;5086998;28;20205;-73
2021/06/29 05:08:38;;;;;;;15.35;6.95;;;15.70;99.90;;;;;;5077263;28;20731;-71
2021/06/29 05:11:05;;;;;;;10.13;5.85;;;15.80;99.90;;;;;;5088892;28;20218;-70
2021/06/29 05:13:33;;;;;;;11.77;8.75;;;15.90;99.90;;;;;;5091217;28;20362;-70
2021/06/29 05:16:00;;;;;;;11.98;7.00;;;16.00;99.90;;;;;;5087495;28;20589;-71
2021/06/29 05:18:27;;;;;;;11.02;6.95;;;15.90;99.90;;;;;;5088835;28;20633;-71
2021/06/29 05:20:55;;;;;;;7.10;6.40;;;15.90;99.90;;;;;;5089064;28;20749;-71
2021/06/29 05:23:23;;;;;;;10.23;6.35;;;16.10;99.90;;;;;;5088470;28;20258;-72
2021/06/29 05:25:50;;;;;;;10.30;7.65;;;16.10;99.90;;;;;;5079669;28;20275;-72
2021/06/29 05:28:19;;;;;;;8.82;6.32;;;16.10;99.90;;;;;;5092660;28;20205;-72
2021/06/29 05:30:47;;;;;;;9.43;6.28;;;16.00;99.90;;;;;;5090889;28;20627;-71
2021/06/29 05:33:15;;;;;;;10.65;6.30;;;16.00;99.90;;;;;;5093301;28;20212;-73
2021/06/29 05:35:42;;;;;;;9.07;6.55;;;16.10;99.90;;;;;;5101057;28;20201;-72
2021/06/29 05:38:10;;;;;;;12.38;6.47;;;16.10;99.90;;;;;;5091232;28;20726;-72
2021/06/29 05:40:38;;;;;;;11.15;6.68;;;16.20;99.90;;;;;;5092857;28;20210;-72
2021/06/29 05:43:05;;;;;;;13.88;7.03;;;16.30;99.90;;;;;;5087184;28;20255;-72
2021/06/29 05:45:32;;;;;;;11.02;6.35;;;16.30;99.90;;;;;;5088912;28;20210;-71
2021/06/29 05:47:59;;;;;;;31.55;29.20;;;16.30;99.90;;;;;;5091033;28;20209;-71
2021/06/29 05:50:26;;;;;;;10.20;7.63;;;16.30;99.90;;;;;;5089493;28;20225;-71
2021/06/29 05:52:53;;;;;;;8.45;5.93;;;16.30;99.90;;;;;;5090741;28;20229;-72
2021/06/29 05:55:22;;;;;;;8.73;6.38;;;16.30;99.90;;;;;;5091286;28;20201;-72
2021/06/29 05:57:49;;;;;;;7.57;6.35;;;16.40;99.90;;;;;;5090715;28;20213;-73
2021/06/29 06:00:19;;;;;;;9.05;6.88;;;16.30;99.90;;;;;;5092463;28;20647;-73
2021/06/29 06:02:46;;;;;;;15.57;6.47;;;16.20;99.90;;;;;;5092313;28;20211;-75
2021/06/29 06:05:13;;;;;;;9.32;6.47;;;16.30;99.90;;;;;;5092300;28;20259;-72
2021/06/29 06:07:40;;;;;;;12.02;6.32;;;16.40;99.90;;;;;;5092500;28;20206;-73
2021/06/29 06:10:09;;;;;;;8.70;6.40;;;16.50;99.90;;;;;;5092489;28;20650;-72
2021/06/29 06:12:37;;;;;;;11.95;7.50;;;16.70;99.90;;;;;;5095172;28;20220;-71
2021/06/29 06:15:05;;;;;;;10.77;5.97;;;16.60;99.90;;;;;;5091729;28;20258;-71
2021/06/29 06:17:37;;;;;;;12.85;6.55;;;16.40;99.90;;;;;;5092064;28;20270;-71
2021/06/29 06:20:05;;;;;;;9.82;6.50;;;16.30;99.90;;;;;;5092028;28;20582;-72
2021/06/29 06:22:32;;;;;;;7.35;6.00;;;16.50;99.90;;;;;;5092414;28;20206;-72
2021/06/29 06:24:59;;;;;;;7.32;6.38;;;16.70;99.90;;;;;;5091442;28;20275;-71
2021/06/29 06:27:27;;;;;;;11.88;6.88;;;16.70;99.90;;;;;;5091552;28;20209;-72
2021/06/29 06:29:55;;;;;;;7.97;5.95;;;16.70;99.90;;;;;;5088225;28;20826;-72
2021/06/29 06:32:22;;;;;;;11.57;6.10;;;16.80;99.90;;;;;;5090503;28;20201;-72
2021/06/29 06:34:49;;;;;;;10.95;7.07;;;17.00;99.90;;;;;;5091335;28;20205;-72
2021/06/29 06:37:16;;;;;;;12.00;6.20;;;17.00;99.90;;;;;;5089832;28;20209;-73
2021/06/29 06:39:43;;;;;;;10.65;6.20;;;17.20;99.90;;;;;;5091322;28;20669;-73
2021/06/29 06:42:11;;;;;;;10.13;5.28;;;17.30;99.90;;;;;;5090814;28;20624;-77
2021/06/29 06:44:38;;;;;;;12.65;5.47;;;17.10;99.90;;;;;;5092068;28;20295;-78
2021/06/29 06:47:07;;;;;;;9.32;5.65;;;16.90;99.90;;;;;;5091734;28;20209;-78
2021/06/29 06:49:34;;;;;;;7.03;5.50;;;16.80;99.90;;;;;;5091025;28;20659;-77
2021/06/29 06:52:01;;;;;;;10.95;6.05;;;17.00;99.90;;;;;;5091021;28;20661;-77
2021/06/29 06:54:28;;;;;;;10.65;5.68;;;17.00;99.90;;;;;;5091680;28;20209;-77
2021/06/29 06:56:55;;;;;;;11.95;4.90;;;17.20;99.90;;;;;;5090633;28;20205;-77
2021/06/29 06:59:22;;;;;;;9.20;5.28;;;17.20;99.90;;;;;;5091570;28;20205;-77
2021/06/29 07:01:49;;;;;;;7.45;5.13;;;17.40;99.90;;;;;;5091039;28;20202;-76
2021/06/29 07:04:19;;;;;;;8.43;5.50;;;17.30;99.90;;;;;;5091084;28;20262;-77
2021/06/29 07:06:46;;;;;;;15.50;6.47;;;17.50;99.90;;;;;;5090713;28;20200;-77
2021/06/29 07:09:15;;;;;;;7.18;4.22;;;17.70;99.90;;;;;;5091237;28;20241;-77
2021/06/29 07:11:42;;;;;;;6.75;5.18;;;18.00;99.90;;;;;;5090790;28;20212;-78
2021/06/29 07:14:10;;;;;;;6.88;3.85;;;17.90;99.90;;;;;;5091339;28;20210;-77
2021/06/29 07:16:37;;;;;;;5.55;4.25;;;17.80;99.90;;;;;;5090586;28;20673;-77
2021/06/29 07:19:04;;;;;;;10.15;5.70;;;17.90;99.90;;;;;;5090839;28;20255;-71
2021/06/29 07:21:33;;;;;;;7.55;4.80;;;18.10;99.90;;;;;;5091268;28;20262;-71
2021/06/29 07:24:00;;;;;;;7.30;5.22;;;18.30;99.90;;;;;;5097683;28;20209;-71
2021/06/29 07:26:27;;;;;;;7.80;4.40;;;18.10;99.90;;;;;;5090877;28;20640;-73
2021/06/29 07:28:54;;;;;;;4.18;3.13;;;18.00;99.90;;;;;;5090189;28;20267;-71
2021/06/29 07:31:22;;;;;;;4.25;3.15;;;18.00;99.90;;;;;;5089991;28;20212;-71
2021/06/29 07:33:49;;;;;;;4.43;3.10;;;18.10;99.90;;;;;;5090013;28;20248;-73
2021/06/29 07:36:18;;;;;;;4.63;3.92;;;18.50;99.90;;;;;;5089902;28;20201;-71
2021/06/29 07:38:46;;;;;;;3.42;3.08;;;18.50;99.90;;;;;;5085316;28;20703;-71
2021/06/29 07:41:15;;;;;;;5.47;3.35;;;18.50;99.90;;;;;;5086344;28;20201;-72
2021/06/29 07:43:42;;;;;;;3.70;3.03;;;16.50;99.90;;;;;;5085985;28;20205;-74
2021/06/29 07:46:09;;;;;;;5.47;2.95;;;18.30;99.90;;;;;;5088242;28;20673;-73
2021/06/29 07:48:36;;;;;;;9.57;3.85;;;18.20;99.90;;;;;;5090362;28;20923;-72
2021/06/29 07:51:05;;;;;;;4.57;3.03;;;18.30;99.90;;;;;;5090140;28;20320;-80
2021/06/29 07:53:32;;;;;;;3.60;3.10;;;18.50;99.90;;;;;;5090599;28;20209;-77
2021/06/29 07:56:00;;;;;;;5.82;3.13;;;19.00;99.90;;;;;;5087011;28;20255;-73
2021/06/29 07:58:28;;;;;;;5.55;3.47;;;18.60;99.90;;;;;;5088892;28;20201;-72
2021/06/29 08:00:55;;;;;;;5.53;3.22;;;19.10;99.90;;;;;;5089284;28;20202;-78
2021/06/29 08:03:22;;;;;;;3.60;3.10;;;20.00;99.90;;;;;;5090476;28;20210;-76
2021/06/29 08:05:50;;;;;;;7.15;2.90;;;19.80;99.90;;;;;;5089355;28;20209;-73
2021/06/29 08:08:17;;;;;;;4.13;2.80;;;19.80;99.90;;;;;;5089811;28;20673;-72
2021/06/29 08:10:44;;;;;;;6.75;3.40;;;19.50;99.90;;;;;;5089662;28;20708;-75
2021/06/29 08:13:12;;;;;;;8.52;4.35;;;19.30;99.90;;;;;;5089904;28;20209;-72
2021/06/29 08:15:39;;;;;;;6.53;3.55;;;18.90;99.90;;;;;;5089001;28;20201;-75
2021/06/29 08:18:06;;;;;;;6.43;3.78;;;19.10;99.90;;;;;;5087785;28;20205;-75
2021/06/29 08:20:33;;;;;;;7.03;4.15;;;19.30;99.90;;;;;;5090261;28;20205;-76
2021/06/29 08:23:00;;;;;;;5.47;3.40;;;19.10;99.90;;;;;;5089911;28;20210;-75
2021/06/29 08:25:28;;;;;;;6.15;4.22;;;;;;;;;;5089817;28;20197;-76
2021/06/29 08:27:55;;;;;;;4.40;3.70;;;19.00;99.90;;;;;;5088147;28;20208;-76
2021/06/29 08:30:24;;;;;;;6.68;3.10;;;19.00;99.90;;;;;;5087882;28;20226;-75
2021/06/29 08:32:51;;;;;;;3.60;2.63;;;18.70;99.90;;;;;;5089145;28;20209;-72
2021/06/29 08:35:18;;;;;;;3.25;2.55;;;18.60;99.90;;;;;;5088942;28;20205;-83
2021/06/29 08:37:45;;;;;;;3.15;2.10;;;18.00;99.90;;;;;;5088946;28;20210;-75
2021/06/29 08:40:14;;;;;;;3.60;2.40;;;18.70;99.90;;;;;;5089467;28;20296;-73
2021/06/29 08:42:41;;;;;;;3.28;2.40;;;18.70;99.90;;;;;;5089832;28;20201;-72
2021/06/29 08:45:12;;;;;;;3.00;1.25;;;18.90;99.90;;;;;;5090058;28;20208;-72
2021/06/29 08:47:41;;;;;;;8.88;5.88;;;19.70;99.90;;;;;;5087237;28;20213;-73
2021/06/29 08:50:11;;;;;;;5.45;2.78;;;19.10;99.90;;;;;;5085719;28;20236;-73
2021/06/29 08:52:38;;;;;;;1.65;1.50;;;18.90;99.90;;;;;;5089663;28;20205;-82
2021/06/29 08:55:06;;;;;;;2.95;1.90;;;18.50;99.90;;;;;;5089580;28;20205;-72
2021/06/29 08:57:33;;;;;;;3.03;2.13;;;19.60;99.90;;;;;;5089622;28;20205;-75
2021/06/29 09:00:01;;;;;;;4.40;1.63;;;19.50;99.90;;;;;;5092937;28;20209;-73
2021/06/29 09:02:28;;;;;;;2.58;1.42;;;18.50;99.90;;;;;;5093501;28;20619;-73
2021/06/29 09:04:59;;;;;;;2.88;1.50;;;19.00;99.90;;;;;;5093325;28;20209;-83
2021/06/29 09:07:28;;;;;;;2.08;1.65;;;18.90;99.90;;;;;;5092676;28;20582;-72
2021/06/29 09:09:56;;;;;;;3.35;2.00;;;19.20;99.90;;;;;;5091118;28;20221;-74
2021/06/29 09:12:44;;;;;;;3.38;2.58;;;19.20;99.90;;;;;;5093018;28;20290;-81
2021/06/29 09:15:30;;;;;;;7.28;2.55;;;19.40;99.90;;;;;;5093224;28;20213;-74
2021/06/29 09:17:59;;;;;;;3.90;2.58;;;20.00;99.90;;;;;;5089974;28;20206;-74
2021/06/29 09:20:29;;;;;;;4.68;3.13;;;20.40;99.90;;;;;;5091119;28;20677;-75
2021/06/29 09:22:58;;;;;;;4.25;2.53;;;20.10;99.90;;;;;;5093360;28;20282;-74
2021/06/29 09:25:27;;;;;;;6.25;3.30;;;20.30;99.90;;;;;;5093210;28;20228;-72
2021/06/29 09:27:55;;;;;;;3.63;3.08;;;20.20;99.90;;;;;;5092726;28;20254;-80
2021/06/29 09:30:33;;;;;;;5.65;2.20;;;20.50;99.90;;;;;;5092773;28;20233;-73
2021/06/29 09:33:02;;;;;;;6.53;2.88;;;20.50;99.90;;;;;;5092746;28;20266;-78
2021/06/29 09:35:31;;;;;;;5.30;2.85;;;20.10;99.90;;;;;;5091812;28;20287;-72
2021/06/29 09:37:58;;;;;;;4.47;3.38;;;19.90;99.90;;;;;;5092027;28;20648;-71
2021/06/29 09:40:28;;;;;;;2.47;2.13;;;19.70;99.90;;;;;;5091681;28;20197;-72
2021/06/29 09:43:11;;;;;;;5.05;2.70;;;19.50;99.90;;;;;;5092286;28;20202;-72
2021/06/29 09:45:41;;;;;;;3.22;2.20;;;19.30;99.90;;;;;;5093260;28;20209;-72
2021/06/29 09:48:10;;;;;;;2.45;2.25;;;19.30;99.90;;;;;;5092905;28;20202;-73
2021/06/29 09:50:48;;;;;;;5.13;2.97;;;19.90;99.90;;;;;;5092950;28;20312;-72
2021/06/29 09:53:22;;;;;;;3.58;3.05;;;20.20;99.90;;;;;;5092757;28;20201;-71
2021/06/29 09:55:51;;;;;;;6.97;2.70;;;20.20;99.90;;;;;;5091569;28;20741;-70
2021/06/29 09:58:19;;;;;;;5.68;3.72;;;19.80;99.90;;;;;;5092219;28;20201;-83
2021/06/29 10:00:51;;;;;;;2.83;2.33;;;19.50;99.90;;;;;;5092225;28;20209;-75
2021/06/29 10:03:27;;;;;;;5.28;3.58;;;19.50;99.90;;;;;;5092520;28;20202;-72
2021/06/29 10:05:56;;;;;;;7.13;2.72;;;19.40;99.90;;;;;;5090373;28;20209;-73
2021/06/29 10:08:32;;;;;;;3.40;2.45;;;19.60;99.90;;;;;;5091327;28;20214;-71
2021/06/29 10:11:11;;;;;;;3.92;2.35;;;19.80;99.90;;;;;;5091736;28;20697;-71
2021/06/29 10:13:40;;;;;;;3.78;2.83;;;20.40;99.90;;;;;;5090046;28;20239;-74
2021/06/29 10:16:09;;;;;;;4.50;2.15;;;21.10;99.90;;;;;;5092418;28;20202;-75
2021/06/29 10:18:38;;;;;;;5.75;2.88;;;20.40;99.90;;;;;;5091222;28;20259;-75
2021/06/29 10:21:19;;;;;;;2.53;2.13;;;19.90;99.90;;;;;;5091551;28;20205;-74
2021/06/29 10:23:47;;;;;;;5.88;2.55;;;19.70;99.90;;;;;;5096078;28;20197;-75
2021/06/29 10:26:15;;;;;;;4.28;2.42;;;19.60;99.90;;;;;;5091653;28;20213;-76
2021/06/29 10:28:43;;;;;;;3.42;2.70;;;23.70;99.90;;;;;;5089962;28;20672;-75
2021/06/29 10:31:15;;;;;;;3.20;2.47;;;29.00;99.90;;;;;;5091944;28;20751;-73
2021/06/29 10:33:43;;;;;;;2.40;2.20;;;30.70;99.90;;;;;;5088807;28;20241;-73
2021/06/29 10:36:12;;;;;;;3.55;1.85;;;30.90;99.90;;;;;;5091129;28;20308;-75
2021/06/29 10:38:39;;;;;;;3.58;1.90;;;29.70;99.90;;;;;;5088880;28;20201;-75
2021/06/29 10:41:06;;;;;;;3.30;2.08;;;25.70;99.90;;;;;;5091838;28;20252;-74
2021/06/29 10:43:36;;;;;;;3.50;2.20;;;23.80;99.90;;;;;;5091461;28;20226;-74
2021/06/29 10:46:04;;;;;;;7.63;2.92;;;22.90;99.90;;;;;;5091258;28;20294;-74
2021/06/29 10:48:31;;;;;;;3.90;2.28;;;22.60;99.90;;;;;;5089043;28;20255;-74
2021/06/29 10:51:00;;;;;;;4.40;2.25;;;23.00;99.90;;;;;;5089418;28;20237;-75
2021/06/29 10:53:50;;;;;;;5.88;2.42;;;22.50;99.90;;;;;;5080631;28;20688;-75
2021/06/29 10:56:20;;;;;;;3.50;2.72;;;22.00;99.90;;;;;;5089823;28;20278;-74
2021/06/29 10:58:49;;;;;;;2.80;1.65;;;22.30;99.90;;;;;;5089356;28;20579;-74
2021/06/29 11:01:24;;;;;;;5.25;2.20;;;22.30;99.90;;;;;;5089046;28;20205;-76
2021/06/29 11:03:52;;;;;;;3.58;1.70;;;22.60;99.90;;;;;;5089685;28;20201;-74
2021/06/29 11:06:41;;;;;;;5.78;2.85;;;22.50;99.90;;;;;;5091187;28;20258;-75
2021/06/29 11:09:14;;;;;;;3.45;2.25;;;22.20;99.90;;;;;;5080471;28;20265;-76
2021/06/29 11:11:42;;;;;;;4.13;2.45;;;21.80;99.90;;;;;;5088129;28;20232;-78
2021/06/29 11:14:29;;;;;;;2.10;1.65;;;22.00;99.90;;;;;;5089947;28;20205;-77
2021/06/29 11:16:59;;;;;;;5.65;2.25;;;22.20;99.90;;;;;;5090206;28;20664;-75
2021/06/29 11:20:03;;;;;;;2.63;1.67;;;22.20;99.90;;;;;;5090940;28;20251;-75
2021/06/29 11:22:55;;;;;;;3.92;1.90;;;22.10;99.90;;;;;;5085334;28;20582;-75
2021/06/29 11:25:50;;;;;;;4.80;3.33;;;21.60;99.90;;;;;;5087584;28;20210;-75
2021/06/29 11:28:19;;;;;;;5.00;2.53;;;22.30;99.90;;;;;;5076508;28;20206;-75
2021/06/29 11:31:08;;;;;;;6.50;1.80;;;22.80;99.90;;;;;;5088774;28;20708;-76
2021/06/29 11:33:51;;;;;;;7.85;2.05;;;23.10;99.90;;;;;;5091320;28;20207;-76
2021/06/29 11:36:55;;;;;;;3.10;2.22;;;22.90;99.90;;;;;;5090873;28;20290;-74
2021/06/29 11:39:35;;;;;;;5.45;1.98;;;23.00;99.90;;;;;;5080631;28;20302;-74
2021/06/29 11:42:10;;;;;;;5.65;2.58;;;22.80;99.90;;;;;;5090540;28;20211;-76
2021/06/29 11:45:03;;;;;;;2.28;2.08;;;23.10;99.90;;;;;;5079861;28;20269;-76
2021/06/29 11:47:40;;;;;;;4.32;2.60;;;22.80;99.90;;;;;;5088114;28;20660;-82
2021/06/29 11:50:18;;;;;;;3.50;2.33;;;22.50;99.90;;;;;;5090055;28;20197;-82
2021/06/29 11:52:45;;;;;;;3.83;2.22;;;22.10;99.90;;;;;;5089612;28;20266;-81
2021/06/29 11:55:17;;;;;;;3.50;2.05;;;22.70;99.90;;;;;;5088464;28;20197;-76
2021/06/29 11:57:48;;;;;;;6.88;1.90;;;22.60;99.90;;;;;;5089517;28;20208;-75
2021/06/29 12:00:35;;;;;;;4.65;2.95;;;22.60;99.90;;;;;;5089969;28;20202;-74
2021/06/29 12:03:07;;;;;;;5.82;2.40;;;22.30;99.90;;;;;;5091624;28;20204;-74
2021/06/29 12:05:35;;;;;;;4.78;2.65;;;22.50;99.90;;;;;;5082237;28;20205;-74
2021/06/29 12:08:05;;;;;;;4.50;2.58;;;22.20;99.90;;;;;;5089695;28;20210;-74
2021/06/29 12:10:33;;;;;;;5.55;2.65;;;22.00;99.90;;;;;;5084653;28;20336;-74
2021/06/29 12:13:04;;;;;;;10.65;2.65;;;22.50;99.90;;;;;;5089061;28;20251;-77
2021/06/29 12:15:33;;;;;;;4.70;2.47;;;22.90;99.90;;;;;;5090115;28;20741;-79
2021/06/29 12:18:02;;;;;;;4.00;2.13;;;23.10;99.90;;;;;;5089855;28;20201;-79
2021/06/29 12:20:32;;;;;;;4.57;2.47;;;23.10;99.90;;;;;;5089926;28;20255;-78
2021/06/29 12:23:01;;;;;;;3.25;1.85;;;22.80;99.90;;;;;;5089788;28;20205;-76
2021/06/29 12:25:31;;;;;;;4.05;2.42;;;22.70;99.90;;;;;;5090155;28;20262;-79
2021/06/29 12:28:02;;;;;;;5.57;1.92;;;22.60;99.90;;;;;;5089977;28;20209;-79
2021/06/29 12:30:35;;;;;;;3.70;1.95;;;22.90;99.90;;;;;;5089915;28;20201;-76
2021/06/29 12:33:22;;;;;;;5.00;2.25;;;23.20;99.90;;;;;;5086405;28;20694;-74
2021/06/29 12:35:52;;;;;;;2.40;1.75;;;23.30;99.90;;;;;;5092121;28;20240;-77
2021/06/29 12:38:22;;;;;;;2.92;1.58;;;23.40;99.90;;;;;;5094175;28;20254;-81
2021/06/29 12:40:52;;;;;;;6.88;2.47;;;23.40;99.90;;;;;;5093157;28;20209;-73
2021/06/29 12:43:27;;;;;;;2.03;1.58;;;23.30;99.90;;;;;;5093810;28;20266;-78
2021/06/29 12:45:54;;;;;;;3.30;2.38;;;23.00;99.90;;;;;;5093497;28;20201;-77
2021/06/29 12:48:21;;;;;;;3.85;2.25;;;22.90;99.90;;;;;;5093892;28;20693;-77
2021/06/29 12:51:01;;;;;;;2.05;1.60;;;23.00;99.90;;;;;;5092485;28;20237;-76
2021/06/29 12:53:28;;;;;;;3.10;2.15;;;23.20;99.90;;;;;;5090720;28;20206;-74